METAR Data
IDs: Format: Raw Decoded Include TAF

Data at: 1248 UTC 26 Feb 2021

LERI 261230Z 05008KT 020V080 9999 BKN040 16/07 Q1029 NOSIG